Sunday, May 27, 2018, 3:42 PM GMT
Back to Local

CYOY, Valcartier Airport

Location: , , Canada Lat: 46.9
Local Time: 3:42 PM GMT (15:42 GMT) Lon: -71.5
Time Zone: GMT Elev: 551 ft

Show me the last for .
Show Decoded

2018-05-27 15:00 METAR CYOY 271500Z AUTO 11008G16KT 060V150 9SM CLR 17/04 A3016 RMK SLP216 =
2018-05-27 14:00 METAR CYOY 271400Z AUTO 14009KT 070V160 9SM FEW063 FEW070 16/03 A3016 RMK SLP219
                 =
2018-05-27 13:00 METAR CYOY 271300Z AUTO 12008G16KT 070V180 9SM CLR 15/02 A3016 RMK SLP217 =
2018-05-27 12:00 METAR CYOY 271200Z AUTO 11009KT 060V130 9SM FEW072 14/00 A3016 RMK SLP218 =
2018-05-27 11:00 METAR CYOY 271100Z AUTO 05005KT 9SM FEW099 11/M00 A3017 RMK SLP219 =
2018-05-27 10:00 METAR CYOY 271000Z AUTO 03005KT 9SM CLR 08/M00 A3017 RMK SLP222 =
2018-05-27 09:00 METAR CYOY 270900Z AUTO 04004KT 9SM FEW074 06/M02 A3017 RMK SLP220 =
2018-05-27 08:00 METAR CYOY 270800Z AUTO 06003KT 020V100 9SM CLR 08/M02 A3015 RMK SLP215 =
2018-05-27 07:00 METAR CYOY 270700Z AUTO 09003KT 050V120 9SM FEW078 08/M02 A3014 RMK SLP210 =
2018-05-27 06:00 METAR CYOY 270600Z AUTO 04004KT 9SM CLR 09/M02 A3012 RMK SLP203 =
2018-05-27 05:00 METAR CYOY 270500Z AUTO 07003KT 9SM CLR 09/M00 A3011 RMK SLP202 =
2018-05-27 04:00 METAR CYOY 270400Z AUTO 36003KT 330V090 9SM CLR 07/01 A3010 RMK SLP197 =
2018-05-27 03:00 METAR CYOY 270300Z AUTO 36002KT 9SM FEW071 08/02 A3007 RMK SLP190 =
2018-05-27 02:00 METAR CYOY 270200Z AUTO 00000KT 9SM CLR 09/01 A3005 RMK SLP183 =
2018-05-27 01:00 METAR CYOY 270100Z AUTO 08003KT 020V100 9SM FEW092 12/01 A3002 RMK SLP171 =
2018-05-27 00:00 METAR CYOY 270000Z AUTO 10002KT 9SM FEW080 FEW089 15/M00 A2999 RMK SLP160 =
2018-05-26 23:00 METAR CYOY 262300Z AUTO 10003KT 060V160 9SM FEW081 17/01 A2996 RMK SLP149 =
2018-05-26 22:00 METAR CYOY 262200Z AUTO 12009KT 100V160 9SM FEW074 FEW083 18/03 A2993 RMK SLP140
                 =
2018-05-26 21:00 METAR CYOY 262100Z AUTO 13009KT 100V160 9SM FEW066 FEW080 18/04 A2990 RMK SLP130
                 =
2018-05-26 20:00 METAR CYOY 262000Z AUTO 14011KT 100V160 9SM FEW086 18/05 A2988 RMK SLP121 =
2018-05-26 19:00 METAR CYOY 261900Z AUTO 14009KT 9SM FEW050 FEW073 19/07 A2985 RMK SLP111 =
2018-05-26 18:00 METAR CYOY 261800Z AUTO 16004KT 120V190 9SM FEW066 18/08 A2984 RMK SLP106 =
2018-05-26 17:00 METAR CYOY 261700Z AUTO 13007KT 9SM CLR 16/07 A2983 RMK SLP104 =
2018-05-26 16:00 METAR CYOY 261600Z AUTO 15008KT 110V170 9SM CLR 14/07 A2982 RMK SLP102 =

Support USWX by starting your Amazon purchase here.